Time;durP1;ratioP1;P1;durP2;ratioP2;P2;SDS_P1;SDS_P2;PMS_P1;PMS_P2;Temp;Humidity;BMP_temperature;BMP_pressure;BME280_temperature;BME280_humidity;BME280_pressure;Samples;Min_cycle;Max_cycle;Signal;HPM_P1;HPM_P2
2022/04/29 00:00:40;;;;;;;;;10.25;8.00;;;;;;;;4985271;28;46160;-71
2022/04/29 00:03:07;;;;;;;;;6.50;6.50;;;;;;;;4984055;28;45325;-72
2022/04/29 00:05:34;;;;;;;;;7.50;7.00;;;;;;;;4987633;28;45555;-72
2022/04/29 00:07:59;;;;;;;;;7.00;7.00;;;;;;;;4992944;28;45611;-72
2022/04/29 00:10:24;;;;;;;;;7.75;7.00;;;;;;;;4981449;28;45591;-72
2022/04/29 00:12:50;;;;;;;;;7.25;7.25;;;;;;;;4979891;28;45607;-72
2022/04/29 00:15:16;;;;;;;;;7.50;7.00;;;;;;;;4996228;28;45538;-72
2022/04/29 00:17:41;;;;;;;;;6.00;6.00;;;;;;;;4995369;28;45365;-72
2022/04/29 00:20:07;;;;;;;;;6.75;5.00;;;;;;;;4991842;28;46180;-72
2022/04/29 00:22:33;;;;;;;;;7.00;7.00;;;;;;;;4993208;28;45598;-72
2022/04/29 00:24:58;;;;;;;;;7.75;6.00;;;;;;;;4995653;28;45508;-72
2022/04/29 00:27:23;;;;;;;;;9.25;9.00;;;;;;;;4982283;28;45451;-72
2022/04/29 00:29:48;;;;;;;;;7.75;7.75;;;;;;;;4993486;28;45484;-72
2022/04/29 00:32:14;;;;;;;;;7.00;7.00;;;;;;;;4993906;28;45499;-72
2022/04/29 00:34:39;;;;;;;;;8.00;7.25;;;;;;;;4994388;28;45406;-72
2022/04/29 00:37:04;;;;;;;;;7.50;7.50;;;;;;;;4993047;28;45532;-72
2022/04/29 00:39:29;;;;;;;;;7.25;7.25;;;;;;;;5005350;28;45316;-72
2022/04/29 00:41:55;;;;;;;;;8.00;8.00;;;;;;;;5006072;28;45412;-72
2022/04/29 00:44:20;;;;;;;;;8.50;8.50;;;;;;;;4995771;28;47914;-71
2022/04/29 00:46:46;;;;;;;;;7.00;7.00;;;;;;;;4991237;28;45419;-72
2022/04/29 00:49:13;;;;;;;;;6.25;6.25;;;;;;;;4994765;28;46372;-72
2022/04/29 00:51:39;;;;;;;;;5.00;5.00;;;;;;;;4985249;28;45322;-72
2022/04/29 00:54:06;;;;;;;;;7.25;7.25;;;;;;;;4983732;28;47164;-72
2022/04/29 00:56:34;;;;;;;;;8.75;8.75;;;;;;;;4989921;28;45399;-72
2022/04/29 00:59:09;;;;;;;;;9.75;7.75;;;;;;;;4994403;28;46535;-72
2022/04/29 01:01:36;;;;;;;;;7.50;7.50;;;;;;;;4994073;28;45542;-72
2022/04/29 01:04:02;;;;;;;;;9.50;9.00;;;;;;;;4978009;28;45482;-72
2022/04/29 01:06:27;;;;;;;;;8.00;8.00;;;;;;;;4995565;28;45400;-72
2022/04/29 01:08:52;;;;;;;;;8.50;7.50;;;;;;;;4991001;28;45444;-72
2022/04/29 01:11:23;;;;;;;;;8.00;8.00;;;;;;;;4989771;28;45388;-72
2022/04/29 01:13:49;;;;;;;;;8.50;7.00;;;;;;;;4983617;28;45487;-71
2022/04/29 01:16:15;;;;;;;;;11.50;10.00;;;;;;;;4979544;28;45393;-71
2022/04/29 01:18:41;;;;;;;;;5.75;5.75;;;;;;;;4994739;28;46090;-72
2022/04/29 01:21:06;;;;;;;;;8.25;7.75;;;;;;;;4989002;28;45530;-72
2022/04/29 01:23:32;;;;;;;;;7.50;7.50;;;;;;;;5002381;28;45265;-72
2022/04/29 01:25:57;;;;;;;;;8.25;7.25;;;;;;;;4998224;28;45572;-71
2022/04/29 01:28:24;;;;;;;;;9.75;8.25;;;;;;;;4997671;28;46413;-72
2022/04/29 01:30:51;;;;;;;;;8.00;8.00;;;;;;;;4997744;28;45696;-72
2022/04/29 01:33:17;;;;;;;;;7.25;7.25;;;;;;;;4985634;28;45503;-71
2022/04/29 01:35:43;;;;;;;;;9.00;8.25;;;;;;;;4995241;28;45397;-71
2022/04/29 01:38:08;;;;;;;;;8.00;6.75;;;;;;;;4993270;28;45348;-72
2022/04/29 01:40:33;;;;;;;;;10.25;9.00;;;;;;;;4997816;28;45524;-72
2022/04/29 01:42:58;;;;;;;;;8.50;8.00;;;;;;;;4982358;28;45512;-72
2022/04/29 01:45:23;;;;;;;;;9.00;7.25;;;;;;;;4989270;28;45499;-72
2022/04/29 01:47:49;;;;;;;;;9.50;9.00;;;;;;;;4995359;28;45553;-72
2022/04/29 01:50:14;;;;;;;;;7.25;7.00;;;;;;;;4997559;28;45399;-71
2022/04/29 01:52:40;;;;;;;;;7.25;6.50;;;;;;;;4997680;28;45376;-72
2022/04/29 01:55:05;;;;;;;;;8.75;8.00;;;;;;;;4981818;28;46640;-72
2022/04/29 01:57:30;;;;;;;;;7.50;7.50;;;;;;;;5001483;28;45345;-72
2022/04/29 01:59:55;;;;;;;;;7.00;7.00;;;;;;;;4986145;28;45377;-72
2022/04/29 02:02:22;;;;;;;;;6.00;6.00;;;;;;;;4991402;28;45530;-72
2022/04/29 02:04:47;;;;;;;;;7.00;7.00;;;;;;;;4989939;28;45550;-72
2022/04/29 02:07:12;;;;;;;;;9.50;9.50;;;;;;;;5007111;28;45466;-72
2022/04/29 02:09:37;;;;;;;;;8.25;7.00;;;;;;;;4998224;28;45400;-72
2022/04/29 02:12:06;;;;;;;;;8.25;7.50;;;;;;;;4989961;28;45500;-72
2022/04/29 02:14:32;;;;;;;;;8.00;8.00;;;;;;;;4986017;28;45472;-72
2022/04/29 02:16:57;;;;;;;;;6.75;6.75;;;;;;;;4985985;28;46283;-72
2022/04/29 02:19:23;;;;;;;;;10.75;9.00;;;;;;;;4984408;28;45476;-72
2022/04/29 02:21:49;;;;;;;;;8.00;8.00;;;;;;;;4980505;28;45250;-72
2022/04/29 02:24:14;;;;;;;;;9.50;8.00;;;;;;;;4984932;28;45475;-72
2022/04/29 02:26:39;;;;;;;;;9.00;7.75;;;;;;;;4999560;28;45654;-72
2022/04/29 02:29:04;;;;;;;;;6.75;5.25;;;;;;;;5004059;28;45432;-72
2022/04/29 02:31:30;;;;;;;;;6.50;6.50;;;;;;;;4997269;28;45278;-71
2022/04/29 02:33:55;;;;;;;;;8.00;8.00;;;;;;;;4979177;28;45311;-71
2022/04/29 02:36:21;;;;;;;;;9.50;7.50;;;;;;;;4992687;28;45381;-72
2022/04/29 02:38:46;;;;;;;;;7.50;7.00;;;;;;;;4994648;28;45465;-72
2022/04/29 02:41:11;;;;;;;;;9.00;8.00;;;;;;;;4990686;28;46051;-72
2022/04/29 02:43:37;;;;;;;;;8.00;8.00;;;;;;;;4997079;28;45493;-72
2022/04/29 02:46:03;;;;;;;;;6.75;6.75;;;;;;;;4996327;28;47451;-71
2022/04/29 02:48:28;;;;;;;;;11.50;8.25;;;;;;;;4997285;28;45388;-72
2022/04/29 02:50:53;;;;;;;;;8.00;7.00;;;;;;;;5001097;28;45674;-72
2022/04/29 02:53:19;;;;;;;;;6.25;6.25;;;;;;;;5002451;28;45447;-72
2022/04/29 02:55:44;;;;;;;;;7.00;7.00;;;;;;;;4996113;28;46390;-72
2022/04/29 02:58:11;;;;;;;;;8.75;8.75;;;;;;;;4981022;28;45522;-72
2022/04/29 03:00:37;;;;;;;;;7.50;7.50;;;;;;;;4986605;28;45547;-71
2022/04/29 03:03:02;;;;;;;;;8.25;8.00;;;;;;;;4996441;28;45254;-72
2022/04/29 03:05:27;;;;;;;;;3.75;3.75;;;;;;;;4996085;28;45501;-72
2022/04/29 03:07:52;;;;;;;;;8.00;8.00;;;;;;;;4994931;28;45482;-72
2022/04/29 03:10:18;;;;;;;;;9.00;9.00;;;;;;;;4982392;28;45563;-71
2022/04/29 03:12:43;;;;;;;;;7.75;7.75;;;;;;;;4980480;28;45557;-72
2022/04/29 03:15:18;;;;;;;;;7.25;6.75;;;;;;;;4984875;28;45570;-71
2022/04/29 03:20:28;;;;;;;;;7.25;7.00;;;;;;;;4996208;28;45237;-71
2022/04/29 03:22:53;;;;;;;;;8.00;8.00;;;;;;;;4995421;28;45502;-71
2022/04/29 03:25:18;;;;;;;;;8.50;7.00;;;;;;;;4981844;28;46529;-72
2022/04/29 03:27:43;;;;;;;;;8.25;8.25;;;;;;;;5001875;28;45381;-72
2022/04/29 03:30:09;;;;;;;;;9.50;8.00;;;;;;;;4996929;28;45403;-72
2022/04/29 03:32:34;;;;;;;;;7.25;7.00;;;;;;;;4989059;28;45433;-72
2022/04/29 03:34:59;;;;;;;;;8.00;8.00;;;;;;;;4984916;28;46498;-72
2022/04/29 03:37:25;;;;;;;;;6.25;6.25;;;;;;;;5004778;28;45254;-72
2022/04/29 03:39:50;;;;;;;;;8.25;7.50;;;;;;;;4997795;28;45282;-69
2022/04/29 03:42:15;;;;;;;;;10.00;8.00;;;;;;;;4992519;28;45258;-72
2022/04/29 03:44:40;;;;;;;;;6.75;6.75;;;;;;;;4987351;28;46599;-72
2022/04/29 03:47:05;;;;;;;;;6.75;6.75;;;;;;;;4987705;28;45279;-71
2022/04/29 03:49:37;;;;;;;;;8.50;8.50;;;;;;;;4995825;28;45309;-72
2022/04/29 03:52:02;;;;;;;;;8.00;8.00;;;;;;;;4996001;28;45655;-72
2022/04/29 03:54:28;;;;;;;;;8.00;8.00;;;;;;;;4998582;28;47812;-72
2022/04/29 03:56:53;;;;;;;;;9.25;7.00;;;;;;;;4995359;28;45310;-71
2022/04/29 03:59:18;;;;;;;;;9.00;7.50;;;;;;;;4990831;28;45377;-72
2022/04/29 04:01:44;;;;;;;;;7.25;7.25;;;;;;;;4990051;28;45444;-72
2022/04/29 04:04:09;;;;;;;;;8.50;7.50;;;;;;;;4995432;28;45269;-72
2022/04/29 04:06:49;;;;;;;;;8.00;7.50;;;;;;;;4991597;28;45452;-72
2022/04/29 04:09:15;;;;;;;;;7.25;7.00;;;;;;;;4982814;28;45409;-72
2022/04/29 04:11:41;;;;;;;;;9.50;9.50;;;;;;;;4992490;28;45551;-71
2022/04/29 04:14:06;;;;;;;;;7.75;6.75;;;;;;;;4995419;28;46367;-72
2022/04/29 04:16:32;;;;;;;;;6.00;6.00;;;;;;;;4995270;28;45648;-72
2022/04/29 04:18:57;;;;;;;;;7.75;7.00;;;;;;;;4979779;28;45314;-71
2022/04/29 04:21:22;;;;;;;;;7.25;7.25;;;;;;;;4982705;28;45403;-71
2022/04/29 04:23:47;;;;;;;;;6.50;6.25;;;;;;;;4995597;28;46377;-72
2022/04/29 04:26:13;;;;;;;;;7.00;7.00;;;;;;;;4995563;28;45342;-71
2022/04/29 04:28:38;;;;;;;;;9.00;7.00;;;;;;;;4995386;28;45519;-72
2022/04/29 04:31:03;;;;;;;;;8.00;6.25;;;;;;;;4979704;28;45341;-72
2022/04/29 04:33:28;;;;;;;;;8.75;7.00;;;;;;;;4982295;28;45701;-72
2022/04/29 04:35:53;;;;;;;;;7.00;7.00;;;;;;;;4989403;28;45632;-72
2022/04/29 04:38:18;;;;;;;;;8.00;8.00;;;;;;;;4995013;28;45357;-72
2022/04/29 04:40:44;;;;;;;;;5.75;5.00;;;;;;;;4995072;28;45367;-72
2022/04/29 04:43:09;;;;;;;;;7.75;7.25;;;;;;;;4995103;28;47266;-72
2022/04/29 04:45:34;;;;;;;;;10.00;8.25;;;;;;;;4994275;28;45506;-72
2022/04/29 04:47:59;;;;;;;;;8.00;7.25;;;;;;;;4995085;28;45329;-72
2022/04/29 04:50:24;;;;;;;;;7.00;7.00;;;;;;;;4994790;28;45364;-72
2022/04/29 04:52:50;;;;;;;;;7.50;7.50;;;;;;;;4992876;28;45617;-72
2022/04/29 04:55:15;;;;;;;;;8.00;8.00;;;;;;;;4980384;28;45582;-72
2022/04/29 04:57:40;;;;;;;;;9.75;9.00;;;;;;;;4992619;28;45358;-72
2022/04/29 05:00:06;;;;;;;;;7.00;6.75;;;;;;;;4994759;28;45277;-72
2022/04/29 05:02:31;;;;;;;;;8.00;8.00;;;;;;;;4998955;28;45488;-72
2022/04/29 05:04:57;;;;;;;;;7.50;7.25;;;;;;;;4992783;28;45522;-72
2022/04/29 05:07:22;;;;;;;;;9.00;7.00;;;;;;;;4994374;28;45333;-71
2022/04/29 05:09:48;;;;;;;;;7.00;7.00;;;;;;;;4979244;28;45457;-72
2022/04/29 05:12:14;;;;;;;;;9.25;7.25;;;;;;;;4982592;28;46241;-72
2022/04/29 05:14:39;;;;;;;;;9.00;6.00;;;;;;;;4983515;28;45500;-71
2022/04/29 05:17:04;;;;;;;;;8.00;7.25;;;;;;;;4986314;28;45388;-71
2022/04/29 05:19:29;;;;;;;;;8.75;7.00;;;;;;;;4993830;28;45331;-72
2022/04/29 05:21:55;;;;;;;;;9.25;9.25;;;;;;;;4997361;28;45595;-72
2022/04/29 05:24:20;;;;;;;;;8.00;7.00;;;;;;;;4989232;28;45801;-72
2022/04/29 05:26:45;;;;;;;;;8.75;8.75;;;;;;;;4986004;28;45729;-72
2022/04/29 05:29:10;;;;;;;;;9.00;6.25;;;;;;;;4986877;28;45310;-72
2022/04/29 05:31:35;;;;;;;;;8.25;7.25;;;;;;;;4994455;28;46215;-72
2022/04/29 05:34:03;;;;;;;;;7.50;7.25;;;;;;;;4978265;28;45459;-72
2022/04/29 05:36:29;;;;;;;;;7.00;7.00;;;;;;;;4980540;28;45310;-72
2022/04/29 05:44:22;;;;;;;;;8.00;6.25;;;;;;;;4982914;28;45473;-72
2022/04/29 05:46:47;;;;;;;;;7.75;6.50;;;;;;;;4987223;28;45448;-72
2022/04/29 05:49:12;;;;;;;;;9.50;8.75;;;;;;;;4994305;28;45254;-72
2022/04/29 05:51:37;;;;;;;;;8.50;8.50;;;;;;;;4997284;28;46632;-72
2022/04/29 05:54:03;;;;;;;;;10.75;9.00;;;;;;;;4996736;28;45384;-72
2022/04/29 05:56:28;;;;;;;;;5.25;5.00;;;;;;;;4987610;28;45250;-72
2022/04/29 05:58:53;;;;;;;;;7.25;7.25;;;;;;;;4987246;28;45431;-72
2022/04/29 06:01:18;;;;;;;;;6.50;6.50;;;;;;;;4992201;28;48523;-72
2022/04/29 06:03:44;;;;;;;;;7.00;7.00;;;;;;;;4978390;28;45216;-71
2022/04/29 06:06:09;;;;;;;;;8.00;8.00;;;;;;;;4994015;28;45373;-72
2022/04/29 06:08:34;;;;;;;;;8.00;7.00;;;;;;;;4990184;28;45263;-72
2022/04/29 06:10:59;;;;;;;;;8.00;7.00;;;;;;;;4997395;28;45447;-72
2022/04/29 06:13:24;;;;;;;;;6.00;6.00;;;;;;;;4997361;28;45758;-72
2022/04/29 06:15:49;;;;;;;;;6.00;6.00;;;;;;;;4997567;28;45239;-72
2022/04/29 06:18:15;;;;;;;;;9.25;9.25;;;;;;;;4998037;28;45223;-72
2022/04/29 06:20:40;;;;;;;;;6.00;6.00;;;;;;;;5001626;28;46426;-72
2022/04/29 06:23:05;;;;;;;;;8.25;8.00;;;;;;;;5007978;28;45382;-71
2022/04/29 06:25:30;;;;;;;;;8.25;6.75;;;;;;;;4997045;28;45385;-70
2022/04/29 06:27:55;;;;;;;;;5.00;5.00;;;;;;;;5007342;28;45254;-69
2022/04/29 06:30:21;;;;;;;;;6.75;6.75;;;;;;;;4996363;28;45972;-70
2022/04/29 06:32:46;;;;;;;;;8.00;7.00;;;;;;;;4988166;28;45325;-70
2022/04/29 06:35:11;;;;;;;;;6.00;6.00;;;;;;;;4989284;28;45207;-70
2022/04/29 06:37:36;;;;;;;;;7.75;7.75;;;;;;;;4996963;28;45602;-69
2022/04/29 06:40:05;;;;;;;;;8.25;7.25;;;;;;;;4996973;28;45484;-72
2022/04/29 06:42:31;;;;;;;;;7.25;7.25;;;;;;;;4996414;28;45440;-69
2022/04/29 06:44:57;;;;;;;;;8.00;7.00;;;;;;;;4996983;28;45645;-75
2022/04/29 06:47:22;;;;;;;;;7.00;7.00;;;;;;;;4999115;28;45541;-71
2022/04/29 06:49:47;;;;;;;;;7.25;5.75;;;;;;;;4993510;28;46384;-73
2022/04/29 06:52:12;;;;;;;;;9.75;7.75;;;;;;;;4989920;28;45516;-72
2022/04/29 06:54:37;;;;;;;;;4.25;4.25;;;;;;;;4996869;28;45382;-72
2022/04/29 06:57:03;;;;;;;;;5.50;5.50;;;;;;;;4995645;28;45425;-72
2022/04/29 06:59:28;;;;;;;;;6.00;5.75;;;;;;;;4995930;28;45490;-72
2022/04/29 07:01:53;;;;;;;;;7.00;6.00;;;;;;;;4993371;28;45699;-72
2022/04/29 07:04:19;;;;;;;;;7.25;6.00;;;;;;;;4995756;28;45630;-72
2022/04/29 07:06:44;;;;;;;;;7.00;7.00;;;;;;;;4997136;28;45473;-70
2022/04/29 07:09:09;;;;;;;;;6.25;6.25;;;;;;;;4990351;28;46634;-71
2022/04/29 07:11:34;;;;;;;;;9.75;7.00;;;;;;;;4995212;28;45647;-71
2022/04/29 07:14:00;;;;;;;;;7.25;7.25;;;;;;;;4995722;28;45586;-71
2022/04/29 07:16:25;;;;;;;;;7.50;7.25;;;;;;;;4995573;28;45565;-71
2022/04/29 07:18:50;;;;;;;;;5.50;5.50;;;;;;;;4995053;28;47101;-70
2022/04/29 07:21:16;;;;;;;;;6.50;6.25;;;;;;;;4996241;28;45427;-70
2022/04/29 07:23:41;;;;;;;;;7.25;6.00;;;;;;;;4995297;28;45427;-72
2022/04/29 07:26:07;;;;;;;;;7.00;6.75;;;;;;;;4992614;28;45408;-72
2022/04/29 07:28:32;;;;;;;;;8.00;6.50;;;;;;;;4995213;28;45809;-72
2022/04/29 07:30:57;;;;;;;;;7.50;6.75;;;;;;;;4996093;28;45669;-71
2022/04/29 07:33:23;;;;;;;;;6.00;6.00;;;;;;;;4988313;28;45618;-71
2022/04/29 07:44:01;;;;;;;;;6.00;6.00;;;;;;;;4993291;28;45618;-71
2022/04/29 07:46:26;;;;;;;;;5.75;5.75;;;;;;;;4984771;28;45538;-71
2022/04/29 07:48:52;;;;;;;;;8.50;5.75;;;;;;;;4995785;28;47266;-71
2022/04/29 07:51:17;;;;;;;;;7.00;7.00;;;;;;;;4983465;28;45601;-71
2022/04/29 07:53:42;;;;;;;;;9.00;8.00;;;;;;;;4994727;28;45495;-71
2022/04/29 07:56:08;;;;;;;;;8.50;8.00;;;;;;;;5003522;28;45298;-72
2022/04/29 07:58:34;;;;;;;;;7.25;6.00;;;;;;;;4994056;28;45961;-72
2022/04/29 08:00:59;;;;;;;;;7.00;6.50;;;;;;;;5001123;28;45425;-72
2022/04/29 08:03:24;;;;;;;;;7.75;6.75;;;;;;;;4997623;28;45429;-72
2022/04/29 08:05:50;;;;;;;;;7.75;7.00;;;;;;;;4992774;28;45405;-72
2022/04/29 08:08:15;;;;;;;;;8.00;7.00;;;;;;;;4997988;28;46378;-71
2022/04/29 08:10:40;;;;;;;;;7.50;6.50;;;;;;;;4988630;28;45313;-72
2022/04/29 08:13:06;;;;;;;;;7.00;7.00;;;;;;;;4979614;28;45488;-71
2022/04/29 08:15:32;;;;;;;;;6.00;6.00;;;;;;;;4981167;28;45571;-72
2022/04/29 08:17:57;;;;;;;;;6.50;6.50;;;;;;;;4993855;28;46213;-72
2022/04/29 08:20:23;;;;;;;;;7.00;7.00;;;;;;;;5000522;28;45256;-72
2022/04/29 08:22:48;;;;;;;;;7.50;5.75;;;;;;;;4999104;28;45384;-72
2022/04/29 08:25:15;;;;;;;;;5.75;5.75;;;;;;;;5010878;28;45413;-72
2022/04/29 08:27:41;;;;;;;;;9.00;7.75;;;;;;;;4989986;28;45487;-71
2022/04/29 08:30:06;;;;;;;;;6.25;5.75;;;;;;;;4983660;28;45468;-71
2022/04/29 08:32:38;;;;;;;;;5.75;5.75;;;;;;;;4983247;28;45367;-71
2022/04/29 08:35:04;;;;;;;;;7.00;6.50;;;;;;;;4984301;28;45611;-73
2022/04/29 08:37:29;;;;;;;;;6.25;6.25;;;;;;;;4981918;28;47220;-70
2022/04/29 08:39:54;;;;;;;;;8.75;7.50;;;;;;;;5003920;28;45769;-75
2022/04/29 08:42:19;;;;;;;;;7.00;7.00;;;;;;;;4982797;28;45425;-75
2022/04/29 08:44:45;;;;;;;;;8.00;7.00;;;;;;;;4992442;28;45422;-75
2022/04/29 08:47:12;;;;;;;;;9.50;7.00;;;;;;;;4993337;28;48875;-74
2022/04/29 08:49:37;;;;;;;;;8.50;8.00;;;;;;;;4995168;28;45384;-75
2022/04/29 08:52:02;;;;;;;;;9.00;7.25;;;;;;;;4995210;28;45541;-74
2022/04/29 08:59:59;;;;;;;;;7.25;7.00;;;;;;;;4994807;28;45471;-74
2022/04/29 09:02:26;;;;;;;;;11.00;9.50;;;;;;;;4994032;28;45381;-74
2022/04/29 09:04:53;;;;;;;;;7.50;7.50;;;;;;;;4994928;28;45515;-75
2022/04/29 09:07:19;;;;;;;;;6.00;6.00;;;;;;;;4994843;28;47385;-74
2022/04/29 09:09:44;;;;;;;;;5.00;5.00;;;;;;;;4979040;28;45331;-74
2022/04/29 09:12:13;;;;;;;;;9.50;8.00;;;;;;;;4995546;28;45309;-74
2022/04/29 09:14:38;;;;;;;;;6.00;5.00;;;;;;;;4994415;28;45352;-74
2022/04/29 09:17:03;;;;;;;;;8.00;7.75;;;;;;;;4994598;28;45536;-74
2022/04/29 09:19:35;;;;;;;;;6.75;6.75;;;;;;;;5006165;28;45500;-74
2022/04/29 09:22:05;;;;;;;;;6.75;6.75;;;;;;;;4982495;28;45346;-74
2022/04/29 09:24:30;;;;;;;;;5.50;5.25;;;;;;;;4980976;28;45393;-75
2022/04/29 09:26:59;;;;;;;;;6.75;6.75;;;;;;;;4984197;28;46473;-75
2022/04/29 09:29:24;;;;;;;;;8.25;7.25;;;;;;;;4994253;28;45349;-75
2022/04/29 09:31:56;;;;;;;;;8.50;7.25;;;;;;;;4995713;28;45349;-75
2022/04/29 09:34:22;;;;;;;;;7.25;7.00;;;;;;;;4993065;28;45486;-75
2022/04/29 09:36:47;;;;;;;;;7.00;6.25;;;;;;;;4991876;28;46118;-75
2022/04/29 09:39:30;;;;;;;;;5.50;5.50;;;;;;;;4993871;28;45439;-75
2022/04/29 09:42:04;;;;;;;;;10.00;6.00;;;;;;;;4994298;28;45403;-75
2022/04/29 09:44:30;;;;;;;;;5.00;5.00;;;;;;;;4989746;28;45392;-75
2022/04/29 09:46:59;;;;;;;;;6.75;6.75;;;;;;;;4990633;28;45996;-75
2022/04/29 09:49:28;;;;;;;;;6.75;6.50;;;;;;;;4996738;28;45250;-75
2022/04/29 09:51:53;;;;;;;;;7.00;6.00;;;;;;;;4997768;28;45428;-75
2022/04/29 09:54:18;;;;;;;;;8.00;8.00;;;;;;;;5001260;28;45532;-82
2022/04/29 09:56:45;;;;;;;;;7.75;7.75;;;;;;;;5001048;28;45456;-73
2022/04/29 09:59:10;;;;;;;;;9.00;9.00;;;;;;;;4993170;28;45540;-73
2022/04/29 10:01:36;;;;;;;;;12.25;11.25;;;;;;;;4986701;28;45401;-76
2022/04/29 10:04:01;;;;;;;;;12.75;10.25;;;;;;;;4997605;28;45567;-75
2022/04/29 10:06:27;;;;;;;;;9.25;7.50;;;;;;;;5004802;28;45711;-75
2022/04/29 10:08:53;;;;;;;;;14.00;11.25;;;;;;;;4989611;28;45536;-76
2022/04/29 10:11:21;;;;;;;;;12.75;10.75;;;;;;;;4984632;28;45466;-76
2022/04/29 10:13:48;;;;;;;;;11.00;11.00;;;;;;;;4993016;28;45503;-73
2022/04/29 10:16:15;;;;;;;;;20.00;14.75;;;;;;;;4981409;28;45519;-73
2022/04/29 10:21:31;;;;;;;;;22.50;17.00;;;;;;;;4996806;28;45617;-74
2022/04/29 10:23:56;;;;;;;;;20.00;19.00;;;;;;;;4990171;28;48011;-72
2022/04/29 10:26:22;;;;;;;;;16.50;16.50;;;;;;;;4996174;28;45380;-73
2022/04/29 10:28:50;;;;;;;;;16.25;14.25;;;;;;;;4995916;28;45229;-73
2022/04/29 10:31:16;;;;;;;;;15.25;14.00;;;;;;;;4981748;28;45389;-73
2022/04/29 10:33:42;;;;;;;;;17.25;14.25;;;;;;;;4981632;28;45366;-73
2022/04/29 10:36:08;;;;;;;;;17.25;12.00;;;;;;;;4992375;28;45423;-74
2022/04/29 10:38:34;;;;;;;;;15.00;14.00;;;;;;;;4990195;28;45586;-73
2022/04/29 10:41:06;;;;;;;;;12.00;12.00;;;;;;;;4985295;28;45523;-73
2022/04/29 10:43:31;;;;;;;;;12.75;11.00;;;;;;;;5005186;28;45361;-73
2022/04/29 10:46:06;;;;;;;;;12.00;11.75;;;;;;;;4995398;28;47064;-73
2022/04/29 10:48:32;;;;;;;;;15.50;14.50;;;;;;;;4992027;28;45373;-72
2022/04/29 10:50:58;;;;;;;;;13.50;11.75;;;;;;;;4996494;28;49296;-74
2022/04/29 10:53:23;;;;;;;;;15.50;15.50;;;;;;;;4992376;28;45569;-74
2022/04/29 10:55:49;;;;;;;;;11.50;11.00;;;;;;;;4984390;28;45978;-74
2022/04/29 10:58:21;;;;;;;;;12.00;11.00;;;;;;;;4981142;28;45517;-74
2022/04/29 11:00:56;;;;;;;;;13.75;13.00;;;;;;;;5002137;28;45338;-74
2022/04/29 11:03:38;;;;;;;;;15.25;14.25;;;;;;;;4996912;28;45353;-74
2022/04/29 11:06:11;;;;;;;;;14.75;13.50;;;;;;;;4984875;28;45592;-74
2022/04/29 11:08:36;;;;;;;;;12.00;12.00;;;;;;;;4995520;28;46221;-74
2022/04/29 11:11:01;;;;;;;;;14.25;11.50;;;;;;;;4993601;28;45461;-74
2022/04/29 11:13:27;;;;;;;;;12.25;12.25;;;;;;;;4982918;28;45528;-73
2022/04/29 11:15:53;;;;;;;;;14.00;12.00;;;;;;;;4982329;28;46489;-75
2022/04/29 11:18:23;;;;;;;;;11.50;11.50;;;;;;;;4982758;28;45447;-74
2022/04/29 11:20:59;;;;;;;;;14.50;11.75;;;;;;;;4995607;28;45438;-74
2022/04/29 11:26:16;;;;;;;;;10.25;10.25;;;;;;;;4994839;28;45341;-74
2022/04/29 11:28:41;;;;;;;;;11.00;10.00;;;;;;;;4993823;28;45464;-74
2022/04/29 11:31:08;;;;;;;;;12.50;10.00;;;;;;;;4996107;28;45335;-74
2022/04/29 11:33:33;;;;;;;;;14.25;11.50;;;;;;;;4996895;28;45535;-74
2022/04/29 11:36:03;;;;;;;;;12.00;11.25;;;;;;;;4990852;28;46574;-74
2022/04/29 11:38:29;;;;;;;;;10.75;10.75;;;;;;;;4995153;28;45464;-74
2022/04/29 11:40:54;;;;;;;;;13.00;11.00;;;;;;;;4989953;28;45895;-74
2022/04/29 11:43:23;;;;;;;;;10.25;10.00;;;;;;;;4981463;28;45538;-74
2022/04/29 11:45:58;;;;;;;;;13.00;11.75;;;;;;;;4993184;28;47608;-74
2022/04/29 11:48:23;;;;;;;;;9.50;9.00;;;;;;;;4991067;28;45463;-74
2022/04/29 11:50:48;;;;;;;;;10.50;9.50;;;;;;;;4995035;28;45441;-74
2022/04/29 11:53:14;;;;;;;;;12.00;12.00;;;;;;;;4994713;28;45366;-74
2022/04/29 11:55:39;;;;;;;;;10.00;10.00;;;;;;;;4995327;28;46598;-74
2022/04/29 11:58:05;;;;;;;;;12.50;11.00;;;;;;;;4985695;28;45296;-74
2022/04/29 12:00:31;;;;;;;;;10.00;10.00;;;;;;;;5003445;28;45443;-74
2022/04/29 12:03:00;;;;;;;;;9.25;9.00;;;;;;;;4994303;28;45561;-74
2022/04/29 12:05:26;;;;;;;;;9.75;9.25;;;;;;;;4989284;28;45507;-74
2022/04/29 12:07:52;;;;;;;;;10.00;10.00;;;;;;;;4986587;28;45409;-75
2022/04/29 12:10:18;;;;;;;;;11.00;10.25;;;;;;;;4995573;28;45369;-74
2022/04/29 12:12:46;;;;;;;;;9.75;9.75;;;;;;;;4980117;28;45596;-74
2022/04/29 12:15:11;;;;;;;;;11.50;10.00;;;;;;;;4997531;28;46369;-74
2022/04/29 12:17:38;;;;;;;;;10.00;8.00;;;;;;;;4995196;28;45465;-74
2022/04/29 12:20:04;;;;;;;;;10.25;10.25;;;;;;;;4992945;28;45368;-74
2022/04/29 12:22:31;;;;;;;;;10.00;9.25;;;;;;;;4986060;28;45351;-74
2022/04/29 12:24:56;;;;;;;;;11.25;9.75;;;;;;;;4979507;28;46548;-74
2022/04/29 12:27:32;;;;;;;;;8.75;8.00;;;;;;;;4984451;28;46275;-74
2022/04/29 12:35:29;;;;;;;;;12.50;9.50;;;;;;;;4994844;28;45827;-74
2022/04/29 12:37:54;;;;;;;;;8.00;8.00;;;;;;;;4993085;28;45274;-74
2022/04/29 12:40:26;;;;;;;;;8.25;8.25;;;;;;;;4983305;28;45401;-74
2022/04/29 12:42:51;;;;;;;;;7.50;7.25;;;;;;;;4999670;28;45376;-74
2022/04/29 12:45:22;;;;;;;;;10.75;10.25;;;;;;;;4995043;28;45510;-74
2022/04/29 12:47:49;;;;;;;;;10.50;10.50;;;;;;;;4990788;28;45452;-74
2022/04/29 12:50:20;;;;;;;;;9.00;9.00;;;;;;;;4993367;28;46008;-74
2022/04/29 12:53:00;;;;;;;;;10.00;9.00;;;;;;;;4991972;28;45551;-76
2022/04/29 12:55:26;;;;;;;;;9.75;8.00;;;;;;;;4994163;28;45380;-74
2022/04/29 12:57:51;;;;;;;;;9.00;7.75;;;;;;;;4978883;28;45433;-74
2022/04/29 13:00:23;;;;;;;;;8.00;8.00;;;;;;;;4995187;28;45538;-74
2022/04/29 13:03:18;;;;;;;;;11.25;10.50;;;;;;;;4989232;28;45518;-74
2022/04/29 13:05:43;;;;;;;;;10.25;10.25;;;;;;;;4981136;28;46080;-74
2022/04/29 13:08:09;;;;;;;;;10.75;9.75;;;;;;;;4984761;28;45417;-74
2022/04/29 13:10:41;;;;;;;;;10.00;9.25;;;;;;;;4982377;28;45425;-74
2022/04/29 13:13:06;;;;;;;;;9.25;9.25;;;;;;;;4992194;28;45368;-74
2022/04/29 13:15:33;;;;;;;;;8.50;8.50;;;;;;;;4995141;28;45743;-74
2022/04/29 13:17:59;;;;;;;;;10.25;8.75;;;;;;;;4995725;28;45490;-74
2022/04/29 13:20:25;;;;;;;;;12.00;12.00;;;;;;;;5000456;28;45446;-74
2022/04/29 13:22:51;;;;;;;;;11.00;9.00;;;;;;;;4997270;28;45459;-74
2022/04/29 13:25:16;;;;;;;;;10.25;10.25;;;;;;;;5002969;28;46612;-74
2022/04/29 13:27:42;;;;;;;;;10.00;10.00;;;;;;;;4998939;28;45293;-74
2022/04/29 13:30:07;;;;;;;;;9.50;9.50;;;;;;;;4986870;28;45439;-74
2022/04/29 13:32:33;;;;;;;;;12.75;11.25;;;;;;;;4992693;28;45494;-75
2022/04/29 13:34:59;;;;;;;;;10.00;10.00;;;;;;;;4996203;28;46688;-74
2022/04/29 13:37:24;;;;;;;;;10.00;10.00;;;;;;;;4996222;28;45210;-75
2022/04/29 13:39:49;;;;;;;;;10.75;9.50;;;;;;;;4997872;28;45306;-75
2022/04/29 13:42:15;;;;;;;;;10.00;9.00;;;;;;;;4997644;28;45452;-74
2022/04/29 13:44:40;;;;;;;;;9.00;9.00;;;;;;;;4995717;28;46391;-74
2022/04/29 13:47:06;;;;;;;;;11.00;11.00;;;;;;;;4996575;28;45269;-74
2022/04/29 13:49:31;;;;;;;;;10.25;10.25;;;;;;;;4993725;28;45444;-74
2022/04/29 13:51:56;;;;;;;;;10.00;8.00;;;;;;;;4995745;28;45410;-74
2022/04/29 13:54:22;;;;;;;;;9.25;9.25;;;;;;;;5006929;28;45999;-74
2022/04/29 13:56:47;;;;;;;;;10.75;9.75;;;;;;;;4999930;28;45167;-74
2022/04/29 13:59:12;;;;;;;;;10.50;8.75;;;;;;;;4993822;28;45239;-74
2022/04/29 14:01:38;;;;;;;;;10.25;10.25;;;;;;;;4996261;28;45533;-74
2022/04/29 14:04:03;;;;;;;;;9.75;9.75;;;;;;;;4996679;28;45573;-74
2022/04/29 14:06:28;;;;;;;;;9.75;9.75;;;;;;;;4998076;28;45273;-74
2022/04/29 14:08:53;;;;;;;;;9.25;8.25;;;;;;;;4987933;28;45507;-74
2022/04/29 14:11:20;;;;;;;;;9.50;9.50;;;;;;;;4985943;28;45480;-74
2022/04/29 14:13:45;;;;;;;;;11.25;9.50;;;;;;;;4985547;28;46956;-74
2022/04/29 14:16:10;;;;;;;;;10.00;10.00;;;;;;;;4990338;28;45417;-74
2022/04/29 14:18:35;;;;;;;;;10.00;10.00;;;;;;;;4982842;28;45378;-74
2022/04/29 14:21:01;;;;;;;;;11.50;11.50;;;;;;;;4992162;28;45474;-74
2022/04/29 14:23:26;;;;;;;;;10.75;9.50;;;;;;;;4996854;28;45536;-74
2022/04/29 14:25:51;;;;;;;;;10.00;9.00;;;;;;;;5005091;28;45411;-73
2022/04/29 14:28:16;;;;;;;;;11.00;9.50;;;;;;;;4982091;28;45672;-74
2022/04/29 14:30:41;;;;;;;;;12.25;11.00;;;;;;;;4996804;28;45784;-74
2022/04/29 14:33:07;;;;;;;;;10.00;9.75;;;;;;;;4996643;28;45452;-74
2022/04/29 14:35:32;;;;;;;;;8.50;8.00;;;;;;;;4991697;28;45485;-75
2022/04/29 14:37:58;;;;;;;;;9.75;9.75;;;;;;;;4995336;28;45269;-74
2022/04/29 14:40:23;;;;;;;;;9.00;7.50;;;;;;;;4985844;28;45484;-74
2022/04/29 14:42:49;;;;;;;;;9.50;9.50;;;;;;;;4981276;28;46138;-74
2022/04/29 14:45:14;;;;;;;;;9.00;8.25;;;;;;;;4985228;28;45644;-74
2022/04/29 14:47:40;;;;;;;;;11.00;10.00;;;;;;;;4994199;28;45400;-74
2022/04/29 14:50:06;;;;;;;;;9.00;9.00;;;;;;;;5003989;28;45559;-74
2022/04/29 14:52:32;;;;;;;;;11.50;9.25;;;;;;;;4995968;28;46398;-74
2022/04/29 14:54:57;;;;;;;;;9.00;9.00;;;;;;;;4996283;28;45657;-74
2022/04/29 14:57:24;;;;;;;;;7.25;7.25;;;;;;;;5000007;28;45384;-74
2022/04/29 14:59:49;;;;;;;;;9.00;9.00;;;;;;;;4996652;28;45366;-74
2022/04/29 15:02:15;;;;;;;;;6.50;6.50;;;;;;;;4995678;28;46374;-74